Wind From: 11-12-2017 10:04 Until: 12-12-2017 06:00 warning for: Wind Level: Orange info button

Power and phone distribution networks may be disrupted for relatively long periods., Roofs and chimneys can be damaged. , Tree branches may break. , Vehicles can be deported. , Traffic may be disrupted, particularly on secondary roads in forest areas. Limit your trips. , Limit your speed in highway driving, especially if you drive a vehicle or hitch sensitive to wind. , Do not go for walks in forests or along the coast., In town, be vigilant against possible falling objects., Do not work on roofs and do not touch any electrical line fallen on the ground., Store or secure sensitive objects to wind or likely to be damaged., Always install power generators outside buildings. 


Meteo18 Weather Cam more information Meteo18 Weather Cam


Thunder radar more information blitzortung!


Rain radar more information rain snow radar


Visit our other weather sites:

Template documentation
and downloads

And another site



Weather Underground History page Text

Daily Summary for December 4, 2017 Units:  Metric    English   Both
« Previous Day
Next Day »
Daily Weekly Monthly Yearly Custom
  High: Low: Average:
Temperature: 5.7 °C 1.3 °C 3.7 °C
Dew Point: 5.4 °C 0.9 °C 3.4 °C
Humidity: 98 % 97 % 98 %
Wind Speed: 8.0 km/h 0.0 km/h 1.3 km/h
Wind Gust: 12.9 km/h - -
Wind:- - SW
Pressure: 1038.1 hPa 1031.4 hPa -
Precipitation: 0.5 mm    
Historical Graphs
 
 
Tabular Data for December 4, 2017
Time Temperature Dew Point Pressure Wind Wind Speed Wind Gust Humidity Rainfall Rate (Hourly)
00:02 1.3 °C 0.9 °C 1031.4 hPa West 1.6 km/h 3.2 km/h 97 % 0.0 mm
00:12 1.3 °C 0.9 °C 1031.4 hPa Calm   4.8 km/h 97 % 0.0 mm
00:17 1.3 °C 0.9 °C 1031.4 hPa Calm   4.8 km/h 97 % 0.0 mm
00:22 1.4 °C 1.0 °C 1031.7 hPa Calm   3.2 km/h 97 % 0.0 mm
00:32 1.4 °C 1.0 °C 1031.7 hPa Calm   3.2 km/h 97 % 0.0 mm
00:42 1.4 °C 1.0 °C 1031.7 hPa Calm   3.2 km/h 97 % 0.0 mm
00:47 1.4 °C 1.0 °C 1031.7 hPa Calm   3.2 km/h 97 % 0.0 mm
00:52 1.5 °C 1.1 °C 1031.7 hPa Calm   3.2 km/h 97 % 0.0 mm
00:57 1.5 °C 1.1 °C 1031.7 hPa WSW 1.6 km/h 3.2 km/h 97 % 0.0 mm
01:02 1.6 °C 1.2 °C 1031.7 hPa Calm   3.2 km/h 97 % 0.0 mm
01:07 1.6 °C 1.2 °C 1031.7 hPa Calm   3.2 km/h 97 % 0.0 mm
01:12 1.6 °C 1.2 °C 1031.7 hPa Calm   1.6 km/h 97 % 0.0 mm
01:17 1.6 °C 1.2 °C 1031.7 hPa Calm     97 % 0.0 mm
01:22 1.6 °C 1.2 °C 1031.7 hPa Calm   1.6 km/h 97 % 0.3 mm
01:27 1.6 °C 1.2 °C 1031.7 hPa Calm   1.6 km/h 97 % 0.3 mm
01:32 1.7 °C 1.3 °C 1031.7 hPa Calm   1.6 km/h 97 % 0.3 mm
01:37 1.7 °C 1.3 °C 1031.7 hPa Calm   1.6 km/h 97 % 0.3 mm
01:42 1.7 °C 1.3 °C 1031.7 hPa SW 1.6 km/h 1.6 km/h 97 % 0.3 mm
01:47 1.8 °C 1.4 °C 1031.7 hPa Calm   1.6 km/h 97 % 0.3 mm
01:52 1.8 °C 1.4 °C 1031.7 hPa Calm   1.6 km/h 97 % 0.3 mm
01:57 1.8 °C 1.4 °C 1031.7 hPa Calm   1.6 km/h 97 % 0.3 mm
02:02 1.8 °C 1.4 °C 1031.7 hPa Calm     97 % 0.3 mm
02:07 1.8 °C 1.4 °C 1031.7 hPa Calm     97 % 0.3 mm
02:12 1.8 °C 1.4 °C 1031.7 hPa Calm     97 % 0.3 mm
02:17 1.8 °C 1.4 °C 1031.7 hPa Calm     97 % 0.3 mm
02:22 1.8 °C 1.4 °C 1031.7 hPa Calm     97 % 0.0 mm
02:27 1.8 °C 1.4 °C 1032.1 hPa Calm     97 % 0.0 mm
02:32 1.8 °C 1.4 °C 1031.7 hPa Calm     97 % 0.0 mm
02:37 1.8 °C 1.4 °C 1032.1 hPa Calm     97 % 0.0 mm
02:42 1.9 °C 1.5 °C 1032.1 hPa Calm     97 % 0.0 mm
02:47 1.9 °C 1.5 °C 1032.1 hPa Calm     97 % 0.0 mm
02:52 1.9 °C 1.5 °C 1032.1 hPa Calm     97 % 0.0 mm
02:57 1.9 °C 1.5 °C 1032.1 hPa Calm     97 % 0.0 mm
03:02 1.9 °C 1.5 °C 1032.1 hPa Calm     97 % 0.0 mm
03:12 2.0 °C 1.6 °C 1032.1 hPa Calm     97 % 0.0 mm
03:17 2.1 °C 1.7 °C 1032.1 hPa Calm     97 % 0.0 mm
03:22 2.1 °C 1.7 °C 1032.1 hPa Calm     97 % 0.0 mm
03:27 2.1 °C 1.7 °C 1032.1 hPa Calm     97 % 0.0 mm
03:32 2.1 °C 1.7 °C 1032.1 hPa Calm     97 % 0.0 mm
03:37 2.2 °C 1.8 °C 1032.1 hPa SSW 1.6 km/h   97 % 0.0 mm
03:42 2.3 °C 1.9 °C 1032.1 hPa WSW 1.6 km/h 1.6 km/h 97 % 0.0 mm
03:52 2.4 °C 2.0 °C 1032.1 hPa Calm   3.2 km/h 97 % 0.0 mm
03:57 2.4 °C 2.0 °C 1032.1 hPa WSW 1.6 km/h 3.2 km/h 97 % 0.3 mm
04:02 2.4 °C 2.0 °C 1032.1 hPa SW 1.6 km/h 3.2 km/h 97 % 0.3 mm
04:07 2.4 °C 2.0 °C 1032.1 hPa WSW 3.2 km/h 3.2 km/h 97 % 0.3 mm
04:22 2.4 °C 2.0 °C 1032.1 hPa West 1.6 km/h 6.4 km/h 97 % 0.3 mm
04:27 2.5 °C 2.1 °C 1032.1 hPa Calm   4.8 km/h 97 % 0.3 mm
04:32 2.4 °C 2.0 °C 1032.1 hPa SW 1.6 km/h 3.2 km/h 97 % 0.3 mm
04:37 2.4 °C 2.0 °C 1032.1 hPa Calm   1.6 km/h 97 % 0.3 mm
04:42 2.4 °C 2.0 °C 1032.1 hPa SSW 1.6 km/h 1.6 km/h 97 % 0.3 mm
04:47 2.4 °C 2.0 °C 1032.1 hPa Calm   1.6 km/h 97 % 0.3 mm
04:52 2.4 °C 2.0 °C 1032.1 hPa Calm   1.6 km/h 97 % 0.3 mm
04:57 2.4 °C 2.0 °C 1032.1 hPa Calm   1.6 km/h 97 % 0.0 mm
05:02 2.4 °C 2.0 °C 1032.1 hPa Calm   1.6 km/h 97 % 0.0 mm
05:07 2.4 °C 2.0 °C 1032.1 hPa Calm   1.6 km/h 97 % 0.0 mm
05:12 2.5 °C 2.1 °C 1032.1 hPa Calm   1.6 km/h 97 % 0.0 mm
05:17 2.5 °C 2.1 °C 1032.4 hPa Calm   1.6 km/h 97 % 0.0 mm
05:22 2.4 °C 2.0 °C 1032.4 hPa SSW 3.2 km/h 3.2 km/h 97 % 0.0 mm
05:32 2.5 °C 2.1 °C 1032.4 hPa SSW 1.6 km/h 3.2 km/h 97 % 0.0 mm
05:42 2.6 °C 2.2 °C 1032.4 hPa Calm   3.2 km/h 97 % 0.3 mm
05:47 2.6 °C 2.2 °C 1032.4 hPa SE 1.6 km/h 1.6 km/h 97 % 0.3 mm
05:52 2.6 °C 2.2 °C 1032.4 hPa Calm   1.6 km/h 97 % 0.3 mm
05:57 2.6 °C 2.2 °C 1032.4 hPa Calm   1.6 km/h 97 % 0.3 mm
06:02 2.6 °C 2.2 °C 1032.4 hPa Calm   1.6 km/h 97 % 0.3 mm
06:12 2.6 °C 2.2 °C 1032.4 hPa Calm   1.6 km/h 97 % 0.3 mm
06:17 2.6 °C 2.2 °C 1032.7 hPa Calm   1.6 km/h 97 % 0.3 mm
06:22 2.6 °C 2.2 °C 1032.7 hPa SW 1.6 km/h 1.6 km/h 97 % 0.3 mm
06:27 2.6 °C 2.2 °C 1032.7 hPa SW 1.6 km/h 3.2 km/h 97 % 0.3 mm
06:32 2.6 °C 2.2 °C 1032.7 hPa Calm   3.2 km/h 97 % 0.3 mm
06:37 2.6 °C 2.2 °C 1032.7 hPa SW 1.6 km/h 3.2 km/h 97 % 0.3 mm
06:42 2.7 °C 2.3 °C 1032.7 hPa WSW 1.6 km/h 3.2 km/h 97 % 0.0 mm
06:47 2.7 °C 2.3 °C 1033.1 hPa Calm   3.2 km/h 97 % 0.0 mm
06:52 2.7 °C 2.3 °C 1033.1 hPa Calm   3.2 km/h 97 % 0.0 mm
06:57 2.7 °C 2.3 °C 1033.1 hPa Calm   3.2 km/h 97 % 0.0 mm
07:02 2.7 °C 2.3 °C 1033.1 hPa Calm   1.6 km/h 97 % 0.0 mm
07:07 2.7 °C 2.3 °C 1033.1 hPa Calm   1.6 km/h 97 % 0.0 mm
07:12 2.7 °C 2.3 °C 1033.1 hPa Calm   1.6 km/h 97 % 0.0 mm
07:22 2.7 °C 2.3 °C 1033.1 hPa SW 1.6 km/h 3.2 km/h 97 % 0.0 mm
07:27 2.7 °C 2.3 °C 1033.1 hPa SSW 1.6 km/h 6.4 km/h 97 % 0.0 mm
07:32 2.7 °C 2.3 °C 1033.1 hPa SW 4.8 km/h 6.4 km/h 97 % 0.0 mm
07:37 2.7 °C 2.3 °C 1033.1 hPa WSW 3.2 km/h 6.4 km/h 97 % 0.0 mm
07:42 2.8 °C 2.4 °C 1033.1 hPa SW 3.2 km/h 6.4 km/h 97 % 0.0 mm
07:47 2.8 °C 2.4 °C 1033.4 hPa SW 3.2 km/h 6.4 km/h 97 % 0.0 mm
07:52 2.8 °C 2.4 °C 1033.4 hPa SW 3.2 km/h 4.8 km/h 97 % 0.0 mm
07:57 2.8 °C 2.4 °C 1033.4 hPa West 1.6 km/h 6.4 km/h 97 % 0.0 mm
08:02 2.8 °C 2.4 °C 1033.7 hPa West 3.2 km/h 6.4 km/h 97 % 0.0 mm
08:07 2.8 °C 2.4 °C 1033.7 hPa WNW 1.6 km/h 6.4 km/h 97 % 0.0 mm
08:12 2.8 °C 2.5 °C 1033.7 hPa Calm   6.4 km/h 98 % 0.0 mm
08:17 2.9 °C 2.6 °C 1033.7 hPa WSW 3.2 km/h 6.4 km/h 98 % 0.0 mm
08:22 2.9 °C 2.6 °C 1033.7 hPa WSW 1.6 km/h 4.8 km/h 98 % 0.0 mm
08:27 2.9 °C 2.6 °C 1033.7 hPa SW 1.6 km/h 4.8 km/h 98 % 0.0 mm
08:32 2.9 °C 2.6 °C 1033.7 hPa SSW 1.6 km/h 3.2 km/h 98 % 0.0 mm
08:42 2.9 °C 2.6 °C 1033.7 hPa SW 3.2 km/h 8.0 km/h 98 % 0.0 mm
08:47 2.9 °C 2.6 °C 1033.7 hPa SSW 3.2 km/h 8.0 km/h 98 % 0.0 mm
08:52 3.0 °C 2.7 °C 1033.7 hPa SW 4.8 km/h 8.0 km/h 98 % 0.0 mm
08:57 3.0 °C 2.7 °C 1034.1 hPa SW 3.2 km/h 8.0 km/h 98 % 0.0 mm
09:02 3.1 °C 2.8 °C 1034.1 hPa SW 8.0 km/h 8.0 km/h 98 % 0.0 mm
09:07 3.1 °C 2.8 °C 1034.1 hPa WSW 4.8 km/h 9.7 km/h 98 % 0.0 mm
09:12 3.1 °C 2.8 °C 1034.1 hPa WSW 1.6 km/h 9.7 km/h 98 % 0.0 mm
09:22 3.2 °C 2.9 °C 1034.4 hPa WSW 1.6 km/h 6.4 km/h 98 % 0.0 mm
09:27 3.2 °C 2.9 °C 1034.4 hPa Calm   6.4 km/h 98 % 0.0 mm
09:32 3.3 °C 3.0 °C 1034.4 hPa Calm   6.4 km/h 98 % 0.0 mm
09:42 3.3 °C 3.0 °C 1034.8 hPa SSW 1.6 km/h 1.6 km/h 98 % 0.0 mm
09:47 3.3 °C 3.0 °C 1034.8 hPa Calm   1.6 km/h 98 % 0.0 mm
09:57 3.4 °C 3.1 °C 1034.8 hPa SW 3.2 km/h 8.0 km/h 98 % 0.0 mm
10:02 3.4 °C 3.1 °C 1034.8 hPa SW 6.4 km/h 8.0 km/h 98 % 0.0 mm
10:07 3.4 °C 3.1 °C 1034.8 hPa SW 1.6 km/h 8.0 km/h 98 % 0.0 mm
10:12 3.4 °C 3.1 °C 1034.8 hPa SW 3.2 km/h 8.0 km/h 98 % 0.0 mm
10:17 3.4 °C 3.1 °C 1034.8 hPa Calm   8.0 km/h 98 % 0.0 mm
10:22 3.5 °C 3.2 °C 1034.8 hPa SW 1.6 km/h 8.0 km/h 98 % 0.0 mm
10:27 3.5 °C 3.2 °C 1035.1 hPa WSW 1.6 km/h 8.0 km/h 98 % 0.0 mm
10:32 3.6 °C 3.3 °C 1035.1 hPa SW 1.6 km/h 6.4 km/h 98 % 0.0 mm
10:37 3.6 °C 3.3 °C 1035.1 hPa SW 1.6 km/h 6.4 km/h 98 % 0.0 mm
10:42 3.6 °C 3.3 °C 1035.1 hPa SSW 4.8 km/h 6.4 km/h 98 % 0.0 mm
10:52 3.7 °C 3.4 °C 1035.1 hPa SW 1.6 km/h 8.0 km/h 98 % 0.0 mm
10:57 3.7 °C 3.4 °C 1035.1 hPa SW 3.2 km/h 8.0 km/h 98 % 0.0 mm
11:02 3.7 °C 3.4 °C 1035.4 hPa SW 1.6 km/h 8.0 km/h 98 % 0.0 mm
11:07 3.8 °C 3.5 °C 1035.4 hPa SW 3.2 km/h 6.4 km/h 98 % 0.0 mm
11:12 3.8 °C 3.5 °C 1035.1 hPa SW 1.6 km/h 6.4 km/h 98 % 0.0 mm
11:17 3.8 °C 3.5 °C 1035.4 hPa SSW 1.6 km/h 6.4 km/h 98 % 0.0 mm
11:22 3.8 °C 3.5 °C 1035.1 hPa South 1.6 km/h 6.4 km/h 98 % 0.0 mm
11:27 3.9 °C 3.6 °C 1035.1 hPa SW 4.8 km/h 4.8 km/h 98 % 0.0 mm
11:32 3.9 °C 3.6 °C 1035.4 hPa SSW 4.8 km/h 6.4 km/h 98 % 0.0 mm
11:37 3.9 °C 3.6 °C 1035.1 hPa SW 4.8 km/h 6.4 km/h 98 % 0.0 mm
11:42 4.0 °C 3.7 °C 1035.1 hPa SW 4.8 km/h 6.4 km/h 98 % 0.0 mm
11:47 4.0 °C 3.7 °C 1035.1 hPa SSW 3.2 km/h 11.3 km/h 98 % 0.0 mm
11:52 4.0 °C 3.7 °C 1035.1 hPa SSW 6.4 km/h 11.3 km/h 98 % 0.0 mm
11:57 4.1 °C 3.8 °C 1035.1 hPa SW 3.2 km/h 11.3 km/h 98 % 0.0 mm
12:02 4.1 °C 3.8 °C 1035.1 hPa SSW 3.2 km/h 8.0 km/h 98 % 0.0 mm
12:12 4.3 °C 4.0 °C 1035.1 hPa SW 1.6 km/h 11.3 km/h 98 % 0.0 mm
12:17 4.3 °C 4.0 °C 1035.1 hPa WSW 4.8 km/h 9.7 km/h 98 % 0.0 mm
12:22 4.3 °C 4.0 °C 1035.1 hPa Calm   9.7 km/h 98 % 0.0 mm
12:27 4.4 °C 4.1 °C 1035.1 hPa SW 4.8 km/h 9.7 km/h 98 % 0.0 mm
12:32 4.4 °C 4.1 °C 1035.1 hPa SSW 8.0 km/h 9.7 km/h 98 % 0.0 mm
12:37 4.4 °C 4.1 °C 1035.1 hPa SSW 6.4 km/h 9.7 km/h 98 % 0.0 mm
12:47 4.4 °C 4.1 °C 1035.1 hPa SW 4.8 km/h 12.9 km/h 98 % 0.0 mm
12:52 4.4 °C 4.1 °C 1035.1 hPa SW 3.2 km/h 12.9 km/h 98 % 0.0 mm
12:57 4.4 °C 4.1 °C 1035.1 hPa SW 4.8 km/h 9.7 km/h 98 % 0.0 mm
13:02 4.5 °C 4.2 °C 1035.1 hPa SW 4.8 km/h 9.7 km/h 98 % 0.0 mm
13:07 4.5 °C 4.2 °C 1035.1 hPa Calm   9.7 km/h 98 % 0.0 mm
13:12 4.6 °C 4.3 °C 1035.1 hPa WSW 4.8 km/h 9.7 km/h 98 % 0.0 mm
13:17 4.7 °C 4.4 °C 1035.1 hPa WSW 4.8 km/h 9.7 km/h 98 % 0.0 mm
13:22 4.8 °C 4.5 °C 1035.1 hPa West 3.2 km/h 9.7 km/h 98 % 0.0 mm
13:27 4.9 °C 4.6 °C 1035.1 hPa WSW 4.8 km/h 9.7 km/h 98 % 0.0 mm
13:32 4.9 °C 4.6 °C 1035.1 hPa SW 3.2 km/h 9.7 km/h 98 % 0.0 mm
13:37 5.1 °C 4.8 °C 1035.1 hPa SW 4.8 km/h 9.7 km/h 98 % 0.0 mm
13:42 5.1 °C 4.8 °C 1035.1 hPa Calm   9.7 km/h 98 % 0.0 mm
13:47 5.2 °C 4.9 °C 1035.1 hPa West 1.6 km/h 6.4 km/h 98 % 0.0 mm
13:52 5.2 °C 4.9 °C 1034.8 hPa Calm   4.8 km/h 98 % 0.0 mm
13:57 5.3 °C 5.0 °C 1035.1 hPa WSW 4.8 km/h 6.4 km/h 98 % 0.0 mm
14:02 5.3 °C 5.0 °C 1035.1 hPa West 4.8 km/h 8.0 km/h 98 % 0.0 mm
14:12 5.4 °C 5.1 °C 1035.1 hPa West 1.6 km/h 8.0 km/h 98 % 0.0 mm
14:17 5.5 °C 5.2 °C 1035.1 hPa Calm   6.4 km/h 98 % 0.0 mm
14:22 5.6 °C 5.3 °C 1035.1 hPa Calm   4.8 km/h 98 % 0.0 mm
14:27 5.6 °C 5.3 °C 1034.8 hPa Calm   4.8 km/h 98 % 0.0 mm
14:32 5.7 °C 5.4 °C 1034.8 hPa Calm   3.2 km/h 98 % 0.0 mm
14:42 5.7 °C 5.4 °C 1035.1 hPa Calm   3.2 km/h 98 % 0.0 mm
14:47 5.7 °C 5.4 °C 1035.1 hPa SSW 3.2 km/h 4.8 km/h 98 % 0.0 mm
14:52 5.6 °C 5.3 °C 1035.1 hPa Calm   4.8 km/h 98 % 0.0 mm
14:57 5.7 °C 5.4 °C 1035.1 hPa SW 6.4 km/h 6.4 km/h 98 % 0.0 mm
15:02 5.7 °C 5.4 °C 1035.1 hPa SW 3.2 km/h 6.4 km/h 98 % 0.0 mm
15:07 5.6 °C 5.3 °C 1035.1 hPa SW 6.4 km/h 6.4 km/h 98 % 0.0 mm
15:12 5.6 °C 5.3 °C 1035.1 hPa SSW 4.8 km/h 8.0 km/h 98 % 0.0 mm
15:17 5.6 °C 5.3 °C 1035.1 hPa SW 1.6 km/h 8.0 km/h 98 % 0.0 mm
15:22 5.6 °C 5.3 °C 1035.1 hPa SW 4.8 km/h 8.0 km/h 98 % 0.0 mm
15:27 5.6 °C 5.3 °C 1035.1 hPa WSW 4.8 km/h 8.0 km/h 98 % 0.0 mm
15:32 5.6 °C 5.3 °C 1035.1 hPa West 4.8 km/h 8.0 km/h 98 % 0.0 mm
15:37 5.5 °C 5.2 °C 1035.4 hPa West 4.8 km/h 8.0 km/h 98 % 0.0 mm
15:42 5.5 °C 5.2 °C 1035.4 hPa WSW 4.8 km/h 8.0 km/h 98 % 0.0 mm
15:47 5.5 °C 5.2 °C 1035.4 hPa West 3.2 km/h 8.0 km/h 98 % 0.0 mm
15:52 5.5 °C 5.2 °C 1035.4 hPa West 4.8 km/h 8.0 km/h 98 % 0.0 mm
16:02 5.5 °C 5.2 °C 1035.4 hPa West 3.2 km/h 8.0 km/h 98 % 0.0 mm
16:12 5.4 °C 5.1 °C 1035.4 hPa WSW 3.2 km/h 8.0 km/h 98 % 0.0 mm
16:17 5.4 °C 5.1 °C 1035.4 hPa Calm   8.0 km/h 98 % 0.0 mm
16:22 5.4 °C 5.1 °C 1035.4 hPa SSW 1.6 km/h 6.4 km/h 98 % 0.0 mm
16:27 5.5 °C 5.2 °C 1035.4 hPa WSW 1.6 km/h 6.4 km/h 98 % 0.0 mm
16:32 5.5 °C 5.2 °C 1035.4 hPa Calm   6.4 km/h 98 % 0.0 mm
16:42 5.5 °C 5.2 °C 1035.8 hPa Calm   4.8 km/h 98 % 0.0 mm
16:47 5.5 °C 5.2 °C 1035.8 hPa Calm   1.6 km/h 98 % 0.0 mm
16:52 5.5 °C 5.2 °C 1035.8 hPa Calm   1.6 km/h 98 % 0.0 mm
17:02 5.6 °C 5.3 °C 1035.8 hPa WNW 3.2 km/h 3.2 km/h 98 % 0.0 mm
17:07 5.6 °C 5.3 °C 1035.8 hPa WNW 3.2 km/h 4.8 km/h 98 % 0.0 mm
17:12 5.6 °C 5.3 °C 1035.8 hPa WNW 1.6 km/h 4.8 km/h 98 % 0.0 mm
17:17 5.6 °C 5.3 °C 1035.8 hPa Calm   4.8 km/h 98 % 0.0 mm
17:22 5.6 °C 5.3 °C 1035.8 hPa Calm   3.2 km/h 98 % 0.0 mm
17:32 5.6 °C 5.3 °C 1036.1 hPa West 1.6 km/h 4.8 km/h 98 % 0.0 mm
17:37 5.6 °C 5.3 °C 1036.1 hPa Calm   4.8 km/h 98 % 0.0 mm
17:47 5.6 °C 5.3 °C 1036.1 hPa Calm   3.2 km/h 98 % 0.0 mm
17:52 5.6 °C 5.3 °C 1036.1 hPa Calm   1.6 km/h 98 % 0.0 mm
17:57 5.6 °C 5.3 °C 1036.1 hPa Calm   3.2 km/h 98 % 0.0 mm
18:02 5.6 °C 5.3 °C 1036.5 hPa Calm   3.2 km/h 98 % 0.0 mm
18:07 5.6 °C 5.3 °C 1036.5 hPa Calm   3.2 km/h 98 % 0.0 mm
18:12 5.6 °C 5.3 °C 1036.5 hPa Calm   1.6 km/h 98 % 0.0 mm
18:17 5.6 °C 5.3 °C 1036.5 hPa Calm   1.6 km/h 98 % 0.0 mm
18:22 5.6 °C 5.3 °C 1036.5 hPa Calm   1.6 km/h 98 % 0.0 mm
18:32 5.6 °C 5.3 °C 1036.5 hPa Calm   3.2 km/h 98 % 0.0 mm
18:42 5.4 °C 5.1 °C 1036.5 hPa Calm   3.2 km/h 98 % 0.0 mm
18:47 5.4 °C 5.1 °C 1036.5 hPa West 1.6 km/h 3.2 km/h 98 % 0.0 mm
18:57 5.3 °C 5.0 °C 1036.5 hPa Calm   4.8 km/h 98 % 0.0 mm
19:02 5.2 °C 4.9 °C 1036.5 hPa Calm   3.2 km/h 98 % 0.0 mm
19:07 5.2 °C 4.9 °C 1036.5 hPa Calm   1.6 km/h 98 % 0.0 mm
19:12 5.1 °C 4.8 °C 1036.8 hPa Calm   1.6 km/h 98 % 0.0 mm
19:17 5.2 °C 4.9 °C 1036.8 hPa Calm     98 % 0.0 mm
19:27 5.2 °C 4.9 °C 1036.8 hPa Calm     98 % 0.0 mm
19:32 5.1 °C 4.8 °C 1037.1 hPa Calm     98 % 0.0 mm
19:37 5.1 °C 4.8 °C 1037.1 hPa Calm     98 % 0.0 mm
19:42 5.1 °C 4.8 °C 1037.1 hPa Calm     98 % 0.0 mm
19:47 5.1 °C 4.8 °C 1037.1 hPa Calm   1.6 km/h 98 % 0.0 mm
19:52 5.1 °C 4.8 °C 1037.1 hPa Calm   1.6 km/h 98 % 0.0 mm
20:02 5.1 °C 4.8 °C 1037.1 hPa Calm   1.6 km/h 98 % 0.0 mm
20:07 5.1 °C 4.8 °C 1037.5 hPa Calm   3.2 km/h 98 % 0.0 mm
20:12 5.1 °C 4.8 °C 1037.1 hPa Calm   3.2 km/h 98 % 0.0 mm
20:17 5.1 °C 4.8 °C 1037.1 hPa Calm   3.2 km/h 98 % 0.0 mm
20:22 5.1 °C 4.8 °C 1037.5 hPa Calm   1.6 km/h 98 % 0.0 mm
20:27 5.1 °C 4.8 °C 1037.5 hPa Calm   3.2 km/h 98 % 0.0 mm
20:32 5.1 °C 4.8 °C 1037.1 hPa Calm   3.2 km/h 98 % 0.0 mm
20:37 5.1 °C 4.8 °C 1037.1 hPa Calm   3.2 km/h 98 % 0.0 mm
20:42 5.1 °C 4.8 °C 1037.1 hPa Calm   3.2 km/h 98 % 0.0 mm
20:47 5.1 °C 4.8 °C 1037.1 hPa Calm   1.6 km/h 98 % 0.0 mm
20:52 5.1 °C 4.8 °C 1037.1 hPa Calm   1.6 km/h 98 % 0.0 mm
21:02 5.0 °C 4.7 °C 1037.1 hPa Calm     98 % 0.0 mm
21:12 4.7 °C 4.4 °C 1037.5 hPa Calm     98 % 0.0 mm
21:17 4.5 °C 4.2 °C 1037.5 hPa Calm     98 % 0.0 mm
21:22 4.3 °C 4.0 °C 1037.5 hPa Calm     98 % 0.0 mm
21:27 4.2 °C 3.8 °C 1037.5 hPa Calm     97 % 0.0 mm
21:32 4.2 °C 3.9 °C 1037.5 hPa Calm     98 % 0.0 mm
21:42 4.1 °C 3.8 °C 1037.5 hPa Calm     98 % 0.0 mm
21:47 3.9 °C 3.6 °C 1037.8 hPa Calm     98 % 0.0 mm
21:52 3.8 °C 3.5 °C 1037.8 hPa Calm     98 % 0.0 mm
21:57 3.7 °C 3.3 °C 1037.8 hPa Calm     97 % 0.0 mm
22:02 3.6 °C 3.3 °C 1037.8 hPa Calm     98 % 0.0 mm
22:07 3.6 °C 3.3 °C 1037.8 hPa Calm     98 % 0.0 mm
22:12 3.5 °C 3.2 °C 1037.8 hPa Calm     98 % 0.0 mm
22:17 3.4 °C 3.1 °C 1037.8 hPa Calm     98 % 0.0 mm
22:22 3.4 °C 3.1 °C 1037.8 hPa Calm     98 % 0.0 mm
22:27 3.4 °C 3.1 °C 1037.8 hPa Calm     98 % 0.0 mm
22:32 3.3 °C 3.0 °C 1037.8 hPa Calm     98 % 0.0 mm
22:42 3.3 °C 3.0 °C 1037.8 hPa Calm   1.6 km/h 98 % 0.0 mm
22:47 3.3 °C 3.0 °C 1037.8 hPa Calm   1.6 km/h 98 % 0.0 mm
22:52 3.4 °C 3.1 °C 1037.8 hPa Calm   1.6 km/h 98 % 0.0 mm
23:02 3.6 °C 3.3 °C 1037.8 hPa Calm   1.6 km/h 98 % 0.0 mm
23:07 3.5 °C 3.2 °C 1038.1 hPa Calm   1.6 km/h 98 % 0.0 mm
23:12 3.5 °C 3.2 °C 1038.1 hPa Calm   1.6 km/h 98 % 0.0 mm
23:17 3.5 °C 3.2 °C 1038.1 hPa Calm   1.6 km/h 98 % 0.0 mm
23:22 3.5 °C 3.2 °C 1038.1 hPa WNW 1.6 km/h 1.6 km/h 98 % 0.0 mm
23:27 3.6 °C 3.3 °C 1038.1 hPa Calm   1.6 km/h 98 % 0.0 mm
23:32 3.6 °C 3.3 °C 1038.1 hPa Calm   1.6 km/h 98 % 0.0 mm
23:37 3.6 °C 3.3 °C 1038.1 hPa Calm   1.6 km/h 98 % 0.0 mm
23:42 3.7 °C 3.4 °C 1038.1 hPa WNW 1.6 km/h 1.6 km/h 98 % 0.0 mm
23:47 3.7 °C 3.4 °C 1038.1 hPa Calm   1.6 km/h 98 % 0.0 mm
23:52 3.6 °C 3.3 °C 1038.1 hPa Calm   1.6 km/h 98 % 0.0 mm
23:57 3.7 °C 3.4 °C 1038.1 hPa SW 1.6 km/h 1.6 km/h 98 % 0.0 mm
Meteo18
Compliments of Weather Underground - 4 mb

Script developed by  Jim McMurry - jmcmurry@mwt.net Adapted for the template by  Wim van der Kuil - Leuven-Template.eu

You find our weather info also at:

European Weather Network

Weather Underground

Equipment we use:

Weather-station
Davis Vue

Weather-program
Meteohub

Weather-server
Raspberry PI 2 B+

Provider
1 and 1

Davis Vue

Meteohub

Raspberry PI 2 B+

1 and 1